Time;durP1;ratioP1;P1;durP2;ratioP2;P2;SDS_P1;SDS_P2;PMS_P1;PMS_P2;Temp;Humidity;BMP_temperature;BMP_pressure;BME280_temperature;BME280_humidity;BME280_pressure;Samples;Min_cycle;Max_cycle;Signal;HPM_P1;HPM_P2
2022/12/11 00:00:21;;;;;;;55.83;15.55;;;1.80;99.90;;;;;;5043970;28;20087;-72
2022/12/11 00:02:47;;;;;;;53.78;17.38;;;1.90;99.90;;;;;;5027837;28;20477;-73
2022/12/11 00:05:13;;;;;;;62.20;16.98;;;2.00;99.90;;;;;;5029062;28;20039;-75
2022/12/11 00:07:38;;;;;;;58.45;17.92;;;2.00;99.90;;;;;;5028688;28;21071;-71
2022/12/11 00:10:08;;;;;;;59.70;16.83;;;2.10;99.90;;;;;;5026385;28;20038;-71
2022/12/11 00:12:33;;;;;;;56.47;17.85;;;2.00;99.90;;;;;;5026802;28;20025;-73
2022/12/11 00:15:05;;;;;;;52.05;17.45;;;2.10;99.90;;;;;;5027903;28;20462;-73
2022/12/11 00:17:31;;;;;;;60.40;17.92;;;2.10;99.90;;;;;;5027126;28;20032;-70
2022/12/11 00:19:56;;;;;;;57.67;16.73;;;2.10;99.90;;;;;;5024357;28;20029;-75
2022/12/11 00:22:22;;;;;;;52.63;16.60;;;2.10;99.90;;;;;;5027163;28;20103;-72
2022/12/11 00:24:48;;;;;;;57.55;16.65;;;2.20;99.90;;;;;;5027077;28;20607;-72
2022/12/11 00:27:13;;;;;;;48.67;16.52;;;2.20;99.90;;;;;;5029060;28;20026;-70
2022/12/11 00:29:39;;;;;;;48.00;16.05;;;2.20;99.90;;;;;;5028237;28;20026;-70
2022/12/11 00:32:05;;;;;;;58.92;16.27;;;2.20;99.90;;;;;;5027350;28;20010;-73
2022/12/11 00:34:31;;;;;;;64.70;18.05;;;2.20;99.90;;;;;;5023263;28;20056;-72
2022/12/11 00:36:57;;;;;;;62.88;17.63;;;2.30;99.90;;;;;;5025188;28;20050;-75
2022/12/11 00:39:23;;;;;;;51.47;16.80;;;2.30;99.90;;;;;;5027804;28;20601;-72
2022/12/11 00:41:52;;;;;;;63.35;17.17;;;2.30;99.90;;;;;;5024833;28;20109;-73
2022/12/11 00:44:17;;;;;;;58.85;17.60;;;2.30;99.90;;;;;;5023203;28;20037;-73
2022/12/11 00:46:43;;;;;;;63.40;19.23;;;2.30;99.90;;;;;;5027897;28;20021;-72
2022/12/11 00:49:11;;;;;;;61.90;17.92;;;2.20;99.90;;;;;;5028273;28;20029;-73
2022/12/11 00:51:39;;;;;;;57.20;17.98;;;2.20;99.90;;;;;;5029030;28;20029;-75
2022/12/11 00:54:05;;;;;;;82.53;20.40;;;2.20;99.90;;;;;;5026534;28;20091;-73
2022/12/11 00:56:31;;;;;;;74.47;20.08;;;2.30;99.90;;;;;;5027215;28;20530;-73
2022/12/11 00:58:56;;;;;;;71.03;19.33;;;2.30;99.90;;;;;;5029679;28;20100;-73
2022/12/11 01:01:24;;;;;;;74.53;21.30;;;2.30;99.90;;;;;;5030380;28;20031;-73
2022/12/11 01:03:50;;;;;;;77.03;20.38;;;2.30;99.90;;;;;;5031805;28;20026;-72
2022/12/11 01:06:21;;;;;;;76.05;19.73;;;2.20;99.90;;;;;;5032119;28;20696;-73
2022/12/11 01:10:22;;;;;;;82.20;21.42;;;2.00;99.90;;;;;;5029531;28;20683;-73
2022/12/11 01:11:40;;;;;;;71.85;21.13;;;2.10;99.90;;;;;;5033695;28;20474;-73
2022/12/11 01:14:06;;;;;;;85.40;23.50;;;2.10;99.90;;;;;;5028980;28;20033;-73
2022/12/11 01:16:31;;;;;;;85.53;21.83;;;2.10;99.90;;;;;;5038270;28;20013;-73
2022/12/11 01:18:59;;;;;;;71.88;21.45;;;2.10;99.90;;;;;;5039553;28;20084;-74
2022/12/11 01:21:25;;;;;;;93.35;23.85;;;2.10;99.90;;;;;;5039596;28;20118;-73
2022/12/11 01:23:53;;;;;;;87.13;22.88;;;2.20;99.90;;;;;;5037352;28;20131;-73
2022/12/11 01:26:19;;;;;;;96.03;23.25;;;2.20;99.90;;;;;;5043039;28;20013;-73
2022/12/11 01:28:47;;;;;;;91.00;22.63;;;2.10;99.90;;;;;;5038554;28;20021;-72
2022/12/11 01:31:16;;;;;;;96.25;24.65;;;2.10;99.90;;;;;;5034637;28;20716;-69
2022/12/11 01:33:42;;;;;;;99.63;25.98;;;2.10;99.90;;;;;;5035635;28;20021;-74
2022/12/11 01:36:14;;;;;;;96.45;24.13;;;2.20;99.90;;;;;;5034347;28;20029;-71
2022/12/11 01:38:43;;;;;;;102.18;25.27;;;2.20;99.90;;;;;;5038395;28;20041;-73
2022/12/11 01:41:11;;;;;;;103.55;25.80;;;2.30;99.90;;;;;;5031869;28;20052;-72
2022/12/11 01:43:57;;;;;;;99.57;27.30;;;2.30;99.90;;;;;;5029604;28;20025;-73
2022/12/11 01:46:26;;;;;;;91.10;24.35;;;2.40;99.90;;;;;;5025415;28;20025;-74
2022/12/11 01:48:53;;;;;;;95.28;24.75;;;2.40;99.90;;;;;;5027664;28;20132;-73
2022/12/11 01:51:19;;;;;;;93.25;23.85;;;2.40;99.90;;;;;;5029691;28;20033;-71
2022/12/11 01:53:57;;;;;;;88.80;23.15;;;2.30;99.90;;;;;;5026267;28;20026;-73
2022/12/11 01:56:29;;;;;;;78.88;22.38;;;2.30;99.90;;;;;;5023278;28;20446;-73
2022/12/11 01:58:59;;;;;;;84.20;23.92;;;2.20;99.90;;;;;;5024959;28;20049;-72
2022/12/11 02:01:32;;;;;;;75.95;21.33;;;2.20;99.90;;;;;;5023003;28;20094;-73
2022/12/11 02:03:58;;;;;;;70.32;19.55;;;2.20;99.90;;;;;;5023506;28;20123;-72
2022/12/11 02:06:45;;;;;;;74.05;20.20;;;2.20;99.90;;;;;;5038544;28;20030;-73
2022/12/11 02:09:16;;;;;;;75.78;20.45;;;2.20;99.90;;;;;;5034963;28;20702;-73
2022/12/11 02:11:46;;;;;;;68.90;21.45;;;2.30;99.90;;;;;;5035451;28;20021;-73
2022/12/11 02:14:18;;;;;;;75.22;20.20;;;2.30;99.90;;;;;;5032896;28;20142;-72
2022/12/11 02:17:16;;;;;;;77.13;18.70;;;2.20;99.90;;;;;;5026012;28;20025;-72
2022/12/11 02:20:00;;;;;;;74.22;18.67;;;2.20;99.90;;;;;;5023855;28;20037;-74
2022/12/11 02:22:43;;;;;;;71.10;18.98;;;2.20;99.90;;;;;;5032773;28;20064;-72
2022/12/11 02:25:32;;;;;;;68.68;19.85;;;2.30;99.90;;;;;;5028633;28;20102;-73
2022/12/11 02:28:24;;;;;;;71.88;19.50;;;2.30;99.90;;;;;;5025842;28;20029;-74
2022/12/11 02:30:56;;;;;;;69.03;18.50;;;2.30;99.90;;;;;;5027649;28;20092;-71
2022/12/11 02:33:37;;;;;;;71.93;18.13;;;2.30;99.90;;;;;;5045671;28;20043;-72
2022/12/11 02:36:05;;;;;;;87.78;20.42;;;2.30;99.90;;;;;;5031231;28;20036;-73
2022/12/11 02:38:35;;;;;;;82.47;20.80;;;2.20;99.90;;;;;;5028202;28;20022;-73
2022/12/11 02:41:04;;;;;;;71.95;19.90;;;2.20;99.90;;;;;;5012424;28;20509;-71
2022/12/11 02:43:31;;;;;;;73.57;18.52;;;2.30;99.90;;;;;;5021908;28;20505;-74
2022/12/11 02:46:02;;;;;;;67.72;19.50;;;2.30;99.90;;;;;;5029192;28;20026;-72
2022/12/11 02:48:29;;;;;;;67.53;20.00;;;2.30;99.90;;;;;;5025854;28;20141;-74
2022/12/11 02:50:58;;;;;;;78.82;21.15;;;2.20;99.90;;;;;;5023313;28;20017;-73
2022/12/11 02:53:29;;;;;;;82.55;20.95;;;2.30;99.90;;;;;;5023211;28;20056;-70
2022/12/11 02:56:08;;;;;;;79.95;19.73;;;2.30;99.90;;;;;;5042230;28;20147;-74
2022/12/11 02:58:36;;;;;;;79.50;20.63;;;2.30;99.90;;;;;;5023791;28;20017;-73
2022/12/11 03:01:04;;;;;;;82.60;20.67;;;2.40;99.90;;;;;;5023323;28;20049;-74
2022/12/11 03:03:31;;;;;;;89.03;21.27;;;2.30;99.90;;;;;;5024027;28;20128;-74
2022/12/11 03:05:57;;;;;;;94.45;22.23;;;2.40;99.90;;;;;;5023999;28;20048;-73
2022/12/11 03:08:22;;;;;;;80.18;20.67;;;2.30;99.90;;;;;;5035151;28;20172;-73
2022/12/11 03:10:50;;;;;;;88.85;22.85;;;2.20;99.90;;;;;;5029831;28;20028;-74
2022/12/11 03:13:20;;;;;;;82.18;23.60;;;2.20;99.90;;;;;;5029072;28;20114;-74
2022/12/11 03:16:16;;;;;;;93.55;22.90;;;2.30;99.90;;;;;;5035843;28;20017;-73
2022/12/11 03:18:57;;;;;;;81.05;21.15;;;2.30;99.90;;;;;;5024006;28;20481;-73
2022/12/11 03:21:32;;;;;;;92.00;22.27;;;2.20;99.90;;;;;;5040935;28;20067;-68
2022/12/11 03:24:41;;;;;;;90.50;22.40;;;2.30;99.90;;;;;;5028713;28;20018;-73
2022/12/11 03:27:15;;;;;;;90.88;22.95;;;2.30;99.90;;;;;;4997937;28;20032;-72
2022/12/11 03:30:05;;;;;;;101.30;22.42;;;2.40;99.90;;;;;;5025607;28;20105;-72
2022/12/11 03:32:43;;;;;;;88.95;23.45;;;2.40;99.90;;;;;;5027024;28;20044;-73
2022/12/11 03:35:16;;;;;;;106.43;23.42;;;2.40;99.90;;;;;;5026914;28;20034;-74
2022/12/11 03:37:45;;;;;;;91.70;22.40;;;2.30;99.90;;;;;;5029053;28;20029;-74
2022/12/11 03:40:15;;;;;;;94.45;23.70;;;2.30;99.90;;;;;;5043041;28;20160;-74
2022/12/11 03:42:44;;;;;;;91.65;21.85;;;2.20;99.90;;;;;;5022922;28;20092;-71
2022/12/11 03:45:11;;;;;;;91.72;22.27;;;2.30;99.90;;;;;;5041903;28;20049;-73
2022/12/11 03:47:39;;;;;;;104.53;25.40;;;2.30;99.90;;;;;;5028185;28;20125;-74
2022/12/11 03:50:08;;;;;;;93.35;23.17;;;2.30;99.90;;;;;;5026321;28;20027;-72
2022/12/11 03:52:36;;;;;;;104.80;24.70;;;2.30;99.90;;;;;;5030094;28;20022;-74
2022/12/11 03:55:04;;;;;;;124.65;25.17;;;2.30;99.90;;;;;;5026811;28;20048;-77
2022/12/11 03:57:33;;;;;;;98.35;23.55;;;2.30;99.90;;;;;;5022621;28;20484;-74
2022/12/11 03:59:59;;;;;;;107.20;25.63;;;2.40;99.90;;;;;;5026675;28;20061;-74
2022/12/11 04:02:25;;;;;;;113.07;25.73;;;2.40;99.90;;;;;;5025125;28;20046;-73
2022/12/11 04:04:51;;;;;;;109.63;24.77;;;2.40;99.90;;;;;;5026855;28;20036;-73
2022/12/11 04:07:17;;;;;;;114.65;26.00;;;2.40;99.90;;;;;;5027863;28;20032;-74
2022/12/11 04:09:42;;;;;;;98.30;24.48;;;2.40;99.90;;;;;;5027013;28;20406;-74
2022/12/11 04:12:08;;;;;;;100.25;25.27;;;2.40;99.90;;;;;;5029656;28;20032;-74
2022/12/11 04:25:34;;;;;;;100.15;25.75;;;2.60;99.90;;;;;;5025086;28;20536;-73
2022/12/11 04:28:02;;;;;;;102.05;24.88;;;2.40;99.90;;;;;;5026562;28;20128;-73
2022/12/11 04:30:28;;;;;;;104.88;24.77;;;2.50;99.90;;;;;;5028383;28;20018;-73
2022/12/11 04:32:54;;;;;;;105.78;27.08;;;2.50;99.90;;;;;;5024416;28;20036;-72
2022/12/11 04:35:20;;;;;;;104.50;25.40;;;2.60;99.90;;;;;;5025950;28;20041;-74
2022/12/11 04:37:49;;;;;;;105.15;25.40;;;2.60;99.90;;;;;;5026832;28;20048;-74
2022/12/11 04:40:17;;;;;;;110.43;25.63;;;2.60;99.90;;;;;;5026286;28;20096;-72
2022/12/11 04:42:42;;;;;;;105.07;25.50;;;2.70;99.90;;;;;;5027750;28;20083;-72
2022/12/11 04:45:09;;;;;;;105.55;27.17;;;2.70;99.90;;;;;;5025600;28;20022;-74
2022/12/11 04:47:36;;;;;;;102.60;28.15;;;2.60;99.90;;;;;;5025474;28;20056;-69
2022/12/11 04:50:06;;;;;;;99.82;25.02;;;2.70;99.90;;;;;;5025830;28;20018;-73
2022/12/11 04:52:34;;;;;;;106.05;26.17;;;2.80;99.90;;;;;;5027021;28;20021;-74
2022/12/11 04:55:00;;;;;;;109.28;27.88;;;2.80;99.90;;;;;;5026265;28;20034;-74
2022/12/11 04:57:28;;;;;;;109.15;27.30;;;2.80;99.90;;;;;;5026379;28;20040;-73
2022/12/11 04:59:53;;;;;;;104.35;25.95;;;2.80;99.90;;;;;;5022876;28;20105;-73
2022/12/11 05:02:21;;;;;;;95.72;25.77;;;2.80;99.90;;;;;;5025867;28;20581;-72
2022/12/11 05:04:47;;;;;;;91.63;25.70;;;2.70;99.90;;;;;;5025477;28;20076;-72
2022/12/11 05:07:15;;;;;;;99.47;25.83;;;2.70;99.90;;;;;;5025286;28;20080;-73
2022/12/11 05:09:42;;;;;;;96.30;25.25;;;2.70;99.90;;;;;;5025012;28;20025;-73
2022/12/11 05:12:08;;;;;;;93.97;23.90;;;2.80;99.90;;;;;;5025628;28;20036;-73
2022/12/11 05:14:34;;;;;;;98.55;25.23;;;2.70;99.90;;;;;;5027129;28;20018;-74
2022/12/11 05:17:02;;;;;;;83.20;23.50;;;2.70;99.90;;;;;;5026027;28;20028;-69
2022/12/11 05:19:27;;;;;;;92.38;24.27;;;2.60;99.90;;;;;;5026307;28;20021;-72
2022/12/11 05:21:55;;;;;;;103.65;25.63;;;2.70;99.90;;;;;;5026703;28;20681;-72
2022/12/11 05:24:21;;;;;;;90.07;24.38;;;2.70;99.90;;;;;;5023762;28;20041;-73
2022/12/11 05:26:46;;;;;;;101.80;24.25;;;2.70;99.90;;;;;;5026589;28;20018;-73
2022/12/11 05:29:12;;;;;;;89.50;23.20;;;2.70;99.90;;;;;;5025555;28;20013;-73
2022/12/11 05:31:38;;;;;;;81.88;24.27;;;2.80;99.90;;;;;;5025122;28;20022;-73
2022/12/11 05:34:05;;;;;;;84.05;22.92;;;2.80;99.90;;;;;;5023426;28;20045;-72
2022/12/11 05:36:32;;;;;;;89.93;24.48;;;2.90;99.90;;;;;;5024826;28;20559;-71
2022/12/11 05:39:02;;;;;;;93.07;24.33;;;2.90;99.90;;;;;;5022854;28;20083;-72
2022/12/11 05:41:30;;;;;;;75.28;22.45;;;2.90;99.90;;;;;;5023650;28;20476;-73
2022/12/11 05:43:58;;;;;;;106.63;25.67;;;3.00;99.90;;;;;;5022757;28;20038;-72
2022/12/11 05:46:28;;;;;;;83.22;23.10;;;3.00;99.90;;;;;;5026659;28;20336;-73
2022/12/11 05:48:59;;;;;;;77.45;23.67;;;2.90;99.90;;;;;;5024385;28;20042;-71
2022/12/11 05:51:26;;;;;;;90.47;24.90;;;2.90;99.90;;;;;;5025479;28;20099;-73
2022/12/11 05:53:53;;;;;;;80.13;23.23;;;2.90;99.90;;;;;;5025508;28;20030;-73
2022/12/11 05:56:22;;;;;;;79.30;24.33;;;2.90;99.90;;;;;;5024487;28;20021;-73
2022/12/11 05:58:49;;;;;;;77.70;24.48;;;2.90;99.90;;;;;;5025531;28;20068;-73
2022/12/11 06:01:24;;;;;;;84.50;23.40;;;2.90;99.90;;;;;;5025615;28;20562;-73
2022/12/11 06:03:50;;;;;;;85.22;24.63;;;2.90;99.90;;;;;;5025279;28;20446;-73
2022/12/11 06:06:16;;;;;;;69.43;22.13;;;2.90;99.90;;;;;;5025109;28;20102;-73
2022/12/11 06:08:44;;;;;;;70.50;21.90;;;2.80;99.90;;;;;;5022787;28;20350;-73
2022/12/11 06:11:15;;;;;;;68.38;21.55;;;2.80;99.90;;;;;;5024032;28;20078;-73
2022/12/11 06:13:40;;;;;;;69.20;21.52;;;2.90;99.90;;;;;;5023922;28;20067;-73
2022/12/11 06:16:08;;;;;;;77.93;22.48;;;2.80;99.90;;;;;;5022841;28;20060;-74
2022/12/11 06:18:38;;;;;;;76.32;22.30;;;2.80;99.90;;;;;;5021353;28;20022;-74
2022/12/11 06:21:28;;;;;;;77.55;20.70;;;2.80;99.90;;;;;;5024448;28;20103;-73
2022/12/11 06:23:57;;;;;;;86.95;22.95;;;2.80;99.90;;;;;;5022603;28;20047;-73
2022/12/11 06:26:25;;;;;;;73.07;21.90;;;2.80;99.90;;;;;;5027099;28;20025;-72
2022/12/11 06:28:53;;;;;;;69.72;20.55;;;2.90;99.90;;;;;;5024767;28;20026;-71
2022/12/11 06:31:19;;;;;;;69.22;22.23;;;2.90;99.90;;;;;;5023806;28;20109;-69
2022/12/11 06:33:45;;;;;;;66.50;21.75;;;2.80;99.90;;;;;;5020448;28;20848;-72
2022/12/11 06:36:19;;;;;;;72.25;20.95;;;2.90;99.90;;;;;;5022898;28;20032;-74
2022/12/11 06:38:47;;;;;;;69.45;20.55;;;2.80;99.90;;;;;;5024729;28;20040;-72
2022/12/11 06:41:14;;;;;;;68.78;22.38;;;2.80;99.90;;;;;;5022021;28;20087;-71
2022/12/11 06:43:42;;;;;;;67.95;22.63;;;2.80;99.90;;;;;;5028464;28;20029;-74
2022/12/11 06:46:13;;;;;;;67.10;20.52;;;2.80;99.90;;;;;;5030465;28;20026;-74
2022/12/11 06:48:42;;;;;;;73.60;21.07;;;2.80;99.90;;;;;;5031632;28;20029;-74
2022/12/11 06:51:11;;;;;;;69.18;20.77;;;2.70;99.90;;;;;;5033472;28;20144;-72
2022/12/11 06:53:40;;;;;;;61.33;20.05;;;2.80;99.90;;;;;;5028511;28;20674;-72
2022/12/11 06:56:12;;;;;;;73.38;20.95;;;2.70;99.90;;;;;;5028103;28;20033;-74
2022/12/11 06:58:39;;;;;;;63.90;20.02;;;2.80;99.90;;;;;;5027218;28;20021;-75
2022/12/11 07:01:13;;;;;;;69.03;21.38;;;2.70;99.90;;;;;;5027364;28;20101;-73
2022/12/11 07:03:39;;;;;;;70.45;20.85;;;2.70;99.90;;;;;;5026730;28;20080;-72
2022/12/11 07:06:05;;;;;;;61.72;20.23;;;2.70;99.90;;;;;;5027591;28;20049;-73
2022/12/11 07:08:31;;;;;;;66.32;21.67;;;2.70;99.90;;;;;;5029590;28;20044;-72
2022/12/11 07:11:11;;;;;;;65.95;20.58;;;2.70;99.90;;;;;;5029780;28;20729;-72
2022/12/11 07:13:37;;;;;;;61.47;20.52;;;2.80;99.90;;;;;;5027687;28;20028;-72
2022/12/11 07:16:09;;;;;;;65.72;20.85;;;2.70;99.90;;;;;;5026471;28;20610;-73
2022/12/11 07:18:35;;;;;;;67.45;20.98;;;2.70;99.90;;;;;;5028501;28;20025;-74
2022/12/11 07:21:04;;;;;;;72.80;21.75;;;2.80;99.90;;;;;;5026843;28;20382;-74
2022/12/11 07:23:30;;;;;;;60.05;19.80;;;2.80;99.90;;;;;;5024600;28;20083;-73
2022/12/11 07:25:56;;;;;;;62.97;21.25;;;2.80;99.90;;;;;;5024731;28;20030;-74
2022/12/11 07:28:22;;;;;;;56.63;19.98;;;2.80;99.90;;;;;;5025678;28;20693;-73
2022/12/11 07:30:53;;;;;;;68.70;21.48;;;2.90;99.90;;;;;;5027094;28;20499;-73
2022/12/11 07:33:18;;;;;;;59.55;21.95;;;2.90;99.90;;;;;;5026053;28;20018;-73
2022/12/11 07:35:44;;;;;;;58.55;21.13;;;2.90;99.90;;;;;;5028737;28;20509;-73
2022/12/11 07:38:10;;;;;;;59.78;21.10;;;2.80;99.90;;;;;;5028042;28;20621;-73
2022/12/11 07:40:36;;;;;;;59.38;19.55;;;2.90;99.90;;;;;;5024390;28;20434;-73
2022/12/11 07:43:02;;;;;;;65.07;20.65;;;2.70;99.90;;;;;;5026265;28;20025;-73
2022/12/11 07:45:28;;;;;;;61.88;20.40;;;2.80;99.90;;;;;;5028078;28;20524;-70
2022/12/11 07:47:53;;;;;;;71.78;20.13;;;2.70;99.90;;;;;;5027386;28;20144;-72
2022/12/11 07:50:22;;;;;;;61.25;20.42;;;2.70;99.90;;;;;;5029166;28;20710;-72
2022/12/11 07:52:47;;;;;;;64.03;20.10;;;2.70;99.90;;;;;;5026954;28;20099;-72
2022/12/11 07:55:13;;;;;;;55.17;20.40;;;2.80;99.90;;;;;;5044252;28;20033;-76
2022/12/11 07:57:39;;;;;;;51.17;18.95;;;2.80;99.90;;;;;;5025137;28;20029;-77
2022/12/11 08:00:09;;;;;;;54.50;19.55;;;2.80;99.90;;;;;;5028735;28;20028;-72
2022/12/11 08:02:36;;;;;;;58.05;21.50;;;2.80;99.90;;;;;;5026303;28;20025;-72
2022/12/11 08:05:01;;;;;;;61.70;20.83;;;2.80;99.90;;;;;;5028698;28;20367;-74
2022/12/11 08:07:27;;;;;;;53.75;19.45;;;2.80;99.90;;;;;;5027485;28;20010;-74
2022/12/11 08:09:56;;;;;;;57.45;19.77;;;2.90;99.90;;;;;;5025881;28;20026;-71
2022/12/11 08:12:24;;;;;;;45.45;16.90;;;2.90;99.90;;;;;;5023177;28;20100;-74
2022/12/11 08:14:49;;;;;;;38.45;14.63;;;2.80;99.90;;;;;;5026233;28;20087;-73
2022/12/11 08:17:15;;;;;;;42.97;17.65;;;2.90;99.90;;;;;;5029588;28;20025;-74
2022/12/11 08:19:41;;;;;;;52.53;16.00;;;2.90;99.90;;;;;;5026117;28;20033;-74
2022/12/11 08:22:07;;;;;;;43.80;17.35;;;2.90;99.90;;;;;;5028579;28;20033;-74
2022/12/11 08:24:35;;;;;;;57.42;17.77;;;2.90;99.90;;;;;;5029185;28;20028;-74
2022/12/11 08:27:05;;;;;;;40.60;15.65;;;2.90;99.90;;;;;;5027549;28;20048;-74
2022/12/11 08:29:31;;;;;;;35.03;15.48;;;2.90;99.90;;;;;;5025688;28;20029;-72
2022/12/11 08:31:57;;;;;;;42.83;16.13;;;2.90;99.90;;;;;;5030029;28;20107;-74
2022/12/11 08:34:22;;;;;;;42.15;15.82;;;3.00;99.90;;;;;;5027906;28;20025;-74
2022/12/11 08:36:50;;;;;;;37.30;16.20;;;2.90;99.90;;;;;;5027161;28;20076;-73
2022/12/11 08:39:16;;;;;;;36.33;15.63;;;3.00;99.90;;;;;;5025809;28;20032;-77
2022/12/11 08:41:44;;;;;;;36.63;14.93;;;2.90;99.90;;;;;;5026322;28;20345;-74
2022/12/11 08:44:15;;;;;;;43.55;16.45;;;2.90;99.90;;;;;;5024882;28;20477;-73
2022/12/11 08:46:41;;;;;;;41.85;16.88;;;3.00;99.90;;;;;;5026755;28;20030;-73
2022/12/11 08:49:11;;;;;;;45.33;16.75;;;3.00;99.90;;;;;;5025578;28;20096;-74
2022/12/11 08:51:38;;;;;;;49.78;17.52;;;3.00;99.90;;;;;;5028575;28;20107;-72
2022/12/11 08:54:03;;;;;;;41.40;17.30;;;3.10;99.90;;;;;;5026217;28;20018;-73
2022/12/11 08:56:29;;;;;;;43.88;17.88;;;3.00;99.90;;;;;;5027715;28;20032;-70
2022/12/11 08:58:55;;;;;;;38.08;16.75;;;3.00;99.90;;;;;;5027899;28;20033;-72
2022/12/11 09:01:23;;;;;;;42.78;16.75;;;3.10;99.90;;;;;;5023855;28;20033;-73
2022/12/11 09:03:50;;;;;;;46.00;17.30;;;3.10;99.90;;;;;;5023899;28;20018;-74
2022/12/11 09:06:18;;;;;;;43.83;16.38;;;3.10;99.90;;;;;;5025406;28;20053;-72
2022/12/11 09:08:45;;;;;;;39.72;17.10;;;3.20;99.90;;;;;;5024941;28;20127;-72
2022/12/11 09:11:14;;;;;;;44.55;17.40;;;3.20;99.90;;;;;;5030349;28;20021;-71
2022/12/11 09:13:41;;;;;;;37.22;15.65;;;3.20;99.90;;;;;;5030637;28;20048;-73
2022/12/11 09:16:14;;;;;;;37.17;15.23;;;3.20;99.90;;;;;;5026956;28;20473;-73
2022/12/11 09:18:40;;;;;;;38.05;15.65;;;3.10;99.90;;;;;;5034085;28;20034;-74
2022/12/11 09:21:12;;;;;;;38.75;15.70;;;2.90;99.90;;;;;;5028610;28;20022;-74
2022/12/11 09:23:38;;;;;;;31.20;14.25;;;3.00;99.90;;;;;;5026697;28;20044;-74
2022/12/11 09:26:09;;;;;;;44.17;15.38;;;2.90;99.90;;;;;;5023527;28;20057;-73
2022/12/11 09:28:35;;;;;;;40.70;15.02;;;2.90;99.90;;;;;;5024867;28;20471;-69
2022/12/11 09:31:06;;;;;;;41.28;16.25;;;2.90;99.90;;;;;;5025657;28;20049;-74
2022/12/11 09:33:32;;;;;;;44.60;15.95;;;2.90;99.90;;;;;;5025057;28;20044;-74
2022/12/11 09:36:03;;;;;;;40.15;16.35;;;2.90;99.90;;;;;;5022939;28;20029;-73
2022/12/11 09:38:29;;;;;;;45.42;17.98;;;3.00;99.90;;;;;;5026093;28;20021;-74
2022/12/11 09:40:55;;;;;;;39.10;16.52;;;3.00;99.90;;;;;;5027101;28;20623;-74
2022/12/11 09:43:51;;;;;;;38.70;15.93;;;3.10;99.90;;;;;;5025924;28;20026;-74
2022/12/11 09:46:19;;;;;;;42.65;16.63;;;3.00;99.90;;;;;;5025477;28;20353;-72
2022/12/11 09:48:46;;;;;;;39.80;16.60;;;3.00;99.90;;;;;;5021484;28;20136;-73
2022/12/11 09:51:36;;;;;;;38.10;15.50;;;3.00;99.90;;;;;;5024283;28;20022;-77
2022/12/11 09:54:03;;;;;;;37.03;14.95;;;3.00;99.90;;;;;;5023730;28;20033;-74
2022/12/11 09:56:46;;;;;;;35.25;15.10;;;3.00;99.90;;;;;;5023173;28;20059;-74
2022/12/11 09:59:17;;;;;;;39.25;14.45;;;3.10;99.90;;;;;;5026047;28;20025;-73
2022/12/11 10:01:56;;;;;;;39.15;13.93;;;3.00;99.90;;;;;;5022915;28;20095;-73
2022/12/11 10:04:54;;;;;;;38.88;16.42;;;3.00;99.90;;;;;;5023628;28;20039;-73
2022/12/11 10:07:35;;;;;;;39.65;15.35;;;3.00;99.90;;;;;;4987808;28;20049;-72
2022/12/11 10:10:15;;;;;;;39.17;14.95;;;2.90;99.90;;;;;;5024630;28;20053;-74
2022/12/11 10:12:49;;;;;;;29.52;13.93;;;3.00;99.90;;;;;;5023371;28;20074;-74
2022/12/11 10:15:57;;;;;;;38.80;14.38;;;2.80;99.90;;;;;;5025322;28;20022;-74
2022/12/11 10:18:27;;;;;;;34.28;14.35;;;2.80;99.90;;;;;;5020245;28;20646;-73
2022/12/11 10:20:53;;;;;;;31.63;12.80;;;2.80;99.90;;;;;;5026922;28;20087;-74
2022/12/11 10:23:26;;;;;;;33.65;13.13;;;2.80;99.90;;;;;;5038451;28;20412;-75
2022/12/11 10:26:06;;;;;;;35.80;12.35;;;2.80;99.90;;;;;;5025996;28;20032;-74
2022/12/11 10:28:31;;;;;;;30.15;12.00;;;2.90;99.90;;;;;;5023049;28;20054;-76
2022/12/11 10:31:17;;;;;;;24.50;11.23;;;2.80;99.90;;;;;;5025953;28;20064;-70
2022/12/11 10:34:11;;;;;;;29.83;12.48;;;2.90;99.90;;;;;;5028080;28;20032;-74
2022/12/11 10:36:42;;;;;;;196.73;57.38;;;2.80;99.90;;;;;;5024605;28;20028;-72
2022/12/11 10:39:21;;;;;;;43.83;17.23;;;2.80;99.90;;;;;;5026162;28;20086;-77
2022/12/11 10:41:57;;;;;;;34.42;14.30;;;2.80;99.90;;;;;;5025851;28;20501;-72
2022/12/11 10:44:29;;;;;;;26.13;11.68;;;2.80;99.90;;;;;;5021630;28;20045;-73
2022/12/11 10:47:16;;;;;;;29.40;12.63;;;2.80;99.90;;;;;;5023408;28;20021;-76
2022/12/11 10:49:52;;;;;;;25.13;12.13;;;2.80;99.90;;;;;;5039775;28;20029;-73
2022/12/11 10:52:31;;;;;;;28.77;11.85;;;2.70;99.90;;;;;;5020847;28;20021;-74
2022/12/11 10:55:05;;;;;;;27.23;11.13;;;2.80;99.90;;;;;;5026866;28;20092;-73
2022/12/11 10:57:38;;;;;;;40.00;11.95;;;2.80;99.90;;;;;;5024066;28;20026;-73
2022/12/11 11:00:08;;;;;;;27.48;11.55;;;2.90;99.90;;;;;;5023093;28;20024;-73
2022/12/11 11:02:41;;;;;;;28.45;11.05;;;2.90;99.90;;;;;;5026028;28;20033;-76
2022/12/11 11:05:16;;;;;;;31.25;12.15;;;3.00;99.90;;;;;;5026261;28;20026;-74
2022/12/11 11:07:43;;;;;;;30.52;11.60;;;2.90;99.90;;;;;;5023151;28;20116;-72
2022/12/11 11:10:12;;;;;;;109.85;35.50;;;2.90;99.90;;;;;;5024140;28;20033;-78
2022/12/11 11:12:44;;;;;;;33.17;13.10;;;3.00;99.90;;;;;;5023914;28;20028;-75
2022/12/11 11:15:15;;;;;;;30.38;12.35;;;3.10;99.90;;;;;;5026456;28;20051;-73
2022/12/11 11:17:53;;;;;;;29.77;11.35;;;3.10;99.90;;;;;;5028467;28;20092;-74
2022/12/11 11:20:23;;;;;;;35.03;11.00;;;2.90;99.90;;;;;;5027835;28;20423;-74
2022/12/11 11:22:52;;;;;;;31.17;12.48;;;2.80;99.90;;;;;;5031273;28;20025;-73
2022/12/11 11:25:26;;;;;;;32.38;12.50;;;2.90;99.90;;;;;;5024586;28;20022;-78
2022/12/11 11:28:03;;;;;;;28.42;11.25;;;2.90;99.90;;;;;;5024773;28;20076;-74
2022/12/11 11:30:40;;;;;;;28.15;12.18;;;2.90;99.90;;;;;;5031417;28;20014;-74
2022/12/11 11:33:18;;;;;;;24.63;11.27;;;2.90;99.90;;;;;;5028192;28;20013;-74
2022/12/11 11:36:19;;;;;;;26.27;11.52;;;2.90;99.90;;;;;;5028951;28;20040;-74
2022/12/11 11:39:22;;;;;;;27.48;11.27;;;2.90;99.90;;;;;;5007878;28;20059;-72
2022/12/11 11:42:00;;;;;;;;;;;3.00;99.90;;;;;;5031328;28;20042;-72
2022/12/11 11:45:04;;;;;;;27.05;11.10;;;3.00;99.90;;;;;;5044974;28;20369;-73
2022/12/11 11:47:37;;;;;;;28.65;10.57;;;3.10;99.90;;;;;;5013773;28;20045;-74
2022/12/11 11:50:15;;;;;;;31.77;12.77;;;3.10;99.90;;;;;;5027884;28;20063;-74
2022/12/11 11:52:58;;;;;;;27.27;11.60;;;3.00;99.90;;;;;;5027825;28;20018;-74
2022/12/11 11:55:41;;;;;;;30.83;13.20;;;3.00;99.90;;;;;;5027760;28;20041;-72
2022/12/11 11:58:16;;;;;;;29.20;11.45;;;2.90;99.90;;;;;;5027551;28;20528;-73
2022/12/11 12:00:45;;;;;;;27.58;12.65;;;2.90;99.90;;;;;;5030899;28;20042;-75
2022/12/11 12:03:17;;;;;;;31.25;12.55;;;3.00;99.90;;;;;;5036444;28;20048;-73
2022/12/11 12:06:01;;;;;;;71.35;25.75;;;3.00;99.90;;;;;;5030679;28;20078;-70
2022/12/11 12:08:26;;;;;;;226.68;70.43;;;3.00;99.90;;;;;;5032442;28;20467;-73
2022/12/11 12:11:26;;;;;;;32.38;14.50;;;3.00;99.90;;;;;;5031322;28;20040;-75
2022/12/11 12:14:00;;;;;;;29.50;12.90;;;3.10;99.90;;;;;;5031243;28;20029;-75
2022/12/11 12:16:44;;;;;;;27.23;12.57;;;3.20;99.90;;;;;;5034471;28;20095;-74
2022/12/11 12:19:25;;;;;;;24.80;10.70;;;3.20;99.90;;;;;;5028534;28;20284;-73
2022/12/11 12:21:53;;;;;;;29.25;12.65;;;3.20;99.90;;;;;;5022159;28;20141;-74
2022/12/11 12:24:29;;;;;;;27.45;12.20;;;3.20;99.90;;;;;;5033278;28;20059;-73
2022/12/11 12:27:05;;;;;;;29.98;12.10;;;3.20;99.90;;;;;;5033241;28;20036;-75
2022/12/11 12:29:50;;;;;;;29.38;12.80;;;3.20;99.90;;;;;;5032881;28;20453;-72
2022/12/11 12:32:30;;;;;;;29.58;11.07;;;3.10;99.90;;;;;;5031552;28;20114;-75
2022/12/11 12:35:35;;;;;;;31.75;12.98;;;3.00;99.90;;;;;;5029911;28;20044;-74
2022/12/11 12:38:06;;;;;;;28.20;11.20;;;3.00;99.90;;;;;;5029235;28;21762;-72
2022/12/11 12:40:35;;;;;;;25.50;11.38;;;3.00;99.90;;;;;;5031933;28;20056;-75
2022/12/11 12:43:37;;;;;;;26.05;11.55;;;2.90;99.90;;;;;;5034154;28;20141;-75
2022/12/11 12:46:27;;;;;;;21.80;10.02;;;3.00;99.90;;;;;;5034762;28;20096;-75
2022/12/11 12:48:55;;;;;;;21.63;10.40;;;2.90;99.90;;;;;;5033216;28;20037;-74
2022/12/11 12:51:22;;;;;;;16.60;8.38;;;2.90;99.90;;;;;;5030835;28;20071;-72
2022/12/11 12:53:58;;;;;;;19.10;8.45;;;2.80;99.90;;;;;;5032555;28;20104;-75
2022/12/11 12:56:26;;;;;;;22.23;9.77;;;2.80;99.90;;;;;;5031964;28;20029;-74
2022/12/11 12:58:52;;;;;;;18.38;9.18;;;2.90;99.90;;;;;;5031974;28;20040;-72
2022/12/11 13:01:25;;;;;;;21.38;9.98;;;3.00;99.90;;;;;;5030843;28;20025;-73
2022/12/11 13:04:03;;;;;;;16.30;8.35;;;3.10;99.90;;;;;;5035784;28;20112;-74
2022/12/11 13:06:35;;;;;;;19.35;8.93;;;3.10;99.90;;;;;;5033261;28;20758;-74